Résultats de la compétition "Régionale en forêt d'Ermenonville" du 09-11-2008 organisée par le club 6009
     
  Télécharger le fichier CSV.  
     
     

 Circuit "A"

Licence Nom Prénom Temps CN
précédent
Score sur
la course
Différence
11342LECLERCThomas0:57:2465656469-96
14909JOLYFrancois0:58:2554976357+860
7049LEROYSimon0:59:0664966283-213
12468RADONDYDaniel1:01:1756006059+459
4768RICARDGael1:02:5259325907-25
14372DUBOISRemi1:07:4761085478-630
10782MAILLARDLudovic1:09:0840055371+1366
6014THURIOTKevin1:09:4751715321+150
17068THIERYSebastien1:11:4248505179+329
20605LOYERLucien1:14:37N/A4977N/A
17576JOLYPhilippe1:15:1853884931-457
6999MAHIEUPierre1:21:2659124560-1352
12515VUILLAUMEBertrand1:22:1545904515-75
12844PASTORPhilippe1:28:5935764173+597
19393HAYERNicolas1:30:0742884121-167
18662NEUVILLEChristian1:30:4734654090+625
658QUEYROIStephane1:44:1738923561-331

  Indice de confiance du circuit (moyenne des différences entre CN et score sur la course des 3 à 10 premiers) : 375




 Circuit "B"

Licence Nom Prénom Temps CN
précédent
Score sur
la course
Différence
14673LECLERCBenjamin0:52:5957375163-574
17780DUMONTJulien0:56:2743794845+466
5421LOTERIEJ-Francois0:57:3653414749-592
17628MANIERELouis0:59:2050114610-401
16508PELLINBertrand1:00:5246134494-119
13673BLUMJean-Guy1:00:5846864487-199
19699GOBERTAlain1:02:1530744394+1320
11655ANDRECamille1:02:1748064392-414
1814LERICHEFranck1:03:1143794329-50
11556LIESSEFrank1:03:3341094304+195
14921CLAUSSDidier1:04:2141224251+129
8947BOULANGERPatrick1:07:4939844033+49
13491GUENINOlivier1:09:3532613931+670
1955WIBARTHelier1:09:5945703908-662
10079PAPINPhilippe1:10:3436673876+209
14676BORCHORST RICARDClarissa1:10:4739953864-131
19602VACHERJean Philippe1:11:3926833818+1135
2892MOULIERECamille1:11:5443433804-539
1956WIBARTMartine1:13:3443203718-602
12736JOLLYFrederic1:14:2337263677-49
16181TELLESCHIBruno1:15:46N/A3610N/A
18615COPGoran1:16:1429873588+601
2007TESSIERJ-Remi1:16:4736843562-122
8180L'HUILLIERPhilippe1:17:5827943508+714
20511MASSOULIÉJean-pierre1:18:07N/A3502N/A
16398GRIMBERTHerve1:19:0230743461+387
12646BLUMVirginie1:19:5437823423-359
9426LERICHECamille1:24:4236853229-456
12053COUTURIERClaude1:25:3230993198+99
20550REGNIEZErwan1:44:14N/A2624N/A
13035PENANGUERCatherine1:48:4123402517+177
16230BATELIQuentinN/A32690-3269
20609DE BOCKNicolasN/AN/A0N/A

  Indice de confiance du circuit (moyenne des différences entre CN et score sur la course des 3 à 10 premiers) : 228




 Circuit "C"

Licence Nom Prénom Temps CN
précédent
Score sur
la course
Différence
7715SANDEVOIRClaire0:40:5345474826+279
11061SANDEVOIRLuc0:46:3643634234-129
1953SAINT-UPERYPatrick0:47:2339394164+225
18191DELAPORTEArthur0:49:5039143959+45
19329ZATTARaphaël0:49:5524643952+1488
2920ANTOINEChristine0:50:2049253920-1005
16143WANTIERLoic0:50:3335733903+330
4810GROCAlain0:52:2937533759+6
12963CASTIERPhilippe0:52:3734643750+286
19240MAZYFrançois-rémi0:53:4232563674+418
19227DIMECHAdrien0:54:5832743589+315
9165BAILLEULJ-Paul0:56:2539043497-407
20214PECQUEURFlorian0:58:2226603380+720
17345LARGILLERELucien0:59:0938613336-525
17895LECLERCJessy0:59:3543173311-1006
13674BLUMMarie1:01:0939103226-684
16950GUENINNathalie1:06:10N/A2982N/A
20499NAUDOTJulien1:08:43N/A2871N/A
19570TOULEMONDEBruno1:13:4021852678+493
7000GRENOUILLATLise1:15:5346592600-2059
11343CORDEIRO MENDESPaulo1:20:1428482459-389
10639BOULANGERIsabelle1:22:5630572379-678
18061TCHENGSophie1:23:3621952360+165
19601GILLETAnnabelle1:27:3517512253+502
19571TOULEMONDEAgnès1:49:5516411795+154
13430FAUVETChrystelleN/A33640-3364
20482SELVEJean-lucN/AN/A0N/A

  Indice de confiance du circuit (moyenne des différences entre CN et score sur la course des 3 à 10 premiers) : 263




 Circuit "D"

Licence Nom Prénom Temps CN
précédent
Score sur
la course
Différence
19411DUBOISXavier0:41:1038103590-220
5597EJSMONTJean0:41:5941333521-612
17067MANIEREMarie0:43:4535073378-129
19362TOULEMONDECamille0:46:3023503179+829
6113GROCClaire0:50:1729802939-41
1938LEFRANCOISGerard0:50:3331942924-270
16205HUMBERTCLAUDEJ-Paul0:51:3230792868-211
1381DIEUDONNERoland0:53:0137532788-965
20213DECOOPMANClémentine0:55:18N/A2673N/A
20029GOBERTAlexandre0:56:2421022621+519
20211CREPIEUXRémy1:01:0615962419+823
19238CAMASMandye1:03:0319682344+376
13672BLUMSylvain1:03:1020792340+261
20215SIXPauline1:05:19N/A2263N/A
20425PECQUEURSylvie1:06:54N/A2209N/A
17344LARGILLEREEugenie1:07:3923722185-187
10805TOUZEAUClaire1:11:49N/A2058N/A
20676DELINSELLEAlexis1:26:19N/A1712N/A
13433VERNONJ-Claude1:47:2511101376+266

  Indice de confiance du circuit (moyenne des différences entre CN et score sur la course des 3 à 10 premiers) : 380




 Circuit "E"

Licence Nom Prénom Temps CN
précédent
Score sur
la course
Différence
18213LARGILLÈRENicolas0:32:5423550-2355
17073VANHAUWAERTHeloise0:34:4924570-2457

  Circuit non comptabilisé (moins de 3 coureurs classés).




 Circuit "F"

Licence Nom Prénom Temps CN
précédent
Score sur
la course
Différence
1380DIEUDONNEMadeleine0:31:5442154062-153
1438BOUSQUETMichel0:51:0130582540-518
15894LUDEWIG-JAMESCarol1:01:0917372119+382
14164EJSMONTMartine1:18:4915431644+101
1437BOUSQUETHuguette1:21:1217891596-193

  Indice de confiance du circuit (moyenne des différences entre CN et score sur la course des 3 à 10 premiers) : 337




 Circuit "G"

Licence Nom Prénom Temps CN
précédent
Score sur
la course
Différence
16948GUENINAntoine0:25:32N/A0N/A
16949GUENINJustine0:30:13N/A0N/A
13030COPPEEVincent0:34:3923380-2338

  Circuit non comptabilisé (moins de 3 coureurs classés).






 Retour